Terminal Aerodrome Forecast
Issued by NWS Wichita, KS

Home | Current Version | Previous Version | Graphics & Text | Print | Product List | Glossary On
Versions: 1 2 3 4 5 6 7 8 9 10 11 12 13 14 15 16 17 18 19 20 21
000
FTUS43 KICT 241601 AAC
TAFICT
TAF AMD
KICT 241601Z 2416/2512 31010G18KT P6SM SCT008 OVC015
      TEMPO 2417/2419 BKN008 OVC015
     FM241900 33018G25KT P6SM SCT015 BKN025
     FM242000 33018G28KT P6SM SCT030
     FM250000 VRB05KT P6SM SCT250=

USA.gov is the U.S. government's official web portal to all federal, state and local government web resources and services.